createdAt,value
2022-10-01T00:00:56.722Z,82.66
2022-10-01T00:04:53.674Z,82.56
2022-10-01T00:08:49.607Z,82.59
2022-10-01T00:12:45.598Z,82.16
2022-10-01T00:16:44.652Z,82.23
2022-10-01T00:20:45.620Z,82.14
2022-10-01T00:24:51.445Z,82.31
2022-10-01T00:28:49.401Z,82.49
2022-10-01T00:37:00.201Z,82.34
2022-10-01T00:40:57.138Z,82.07
2022-10-01T00:44:53.057Z,82.25
2022-10-01T00:48:48.906Z,82.08
2022-10-01T00:52:52.734Z,82.21
2022-10-01T00:56:48.729Z,82.10
2022-10-01T01:05:15.388Z,82.20
2022-10-01T01:09:12.125Z,82.14
2022-10-01T01:13:12.324Z,82.31
2022-10-01T01:17:08.876Z,82.27
2022-10-01T01:21:19.825Z,82.26
2022-10-01T01:29:43.346Z,82.47
2022-10-01T01:33:38.988Z,82.62
2022-10-01T01:37:48.202Z,82.33
2022-10-01T01:41:44.894Z,82.44
2022-10-01T01:50:12.720Z,82.17
2022-10-01T01:54:16.547Z,82.22
2022-10-01T01:58:17.401Z,82.20
2022-10-01T02:06:34.096Z,82.50
2022-10-01T02:10:34.915Z,82.37
2022-10-01T02:14:45.694Z,82.35
2022-10-01T02:19:04.483Z,82.54
2022-10-01T02:23:04.503Z,82.18
2022-10-01T02:27:11.104Z,82.19
2022-10-01T02:31:11.152Z,82.36
2022-10-01T02:35:10.941Z,82.31
2022-10-01T02:39:19.532Z,82.17
2022-10-01T02:47:35.318Z,82.43
2022-10-01T02:51:35.623Z,81.88
2022-10-01T02:55:40.341Z,82.03
2022-10-01T02:59:51.639Z,82.23
2022-10-01T03:03:47.680Z,82.26
2022-10-01T03:12:14.086Z,82.37
2022-10-01T03:16:32.647Z,82.28
2022-10-01T03:24:42.483Z,82.45
2022-10-01T03:28:42.292Z,82.71
2022-10-01T03:32:42.270Z,82.70
2022-10-01T03:41:08.144Z,82.55
2022-10-01T03:45:04.847Z,82.49
2022-10-01T03:49:10.893Z,82.46
2022-10-01T03:57:23.762Z,81.56
2022-10-01T04:01:15.598Z,81.75
2022-10-01T04:09:25.533Z,81.61
2022-10-01T04:13:28.173Z,81.63
2022-10-01T04:17:42.700Z,81.75
2022-10-01T04:21:42.839Z,82.16
2022-10-01T04:25:38.738Z,82.01
2022-10-01T04:29:40.355Z,82.13
2022-10-01T04:33:36.573Z,82.29
2022-10-01T04:37:32.415Z,82.58
2022-10-01T04:41:29.396Z,82.70
2022-10-01T04:45:05.290Z,82.86
2022-10-01T04:48:37.367Z,83.25
2022-10-01T04:52:09.322Z,83.32
2022-10-01T04:55:41.390Z,83.27
2022-10-01T04:59:41.236Z,83.19
2022-10-01T05:03:37.090Z,83.22
2022-10-01T05:07:32.995Z,83.08
2022-10-01T05:11:28.832Z,82.98
2022-10-01T05:15:24.689Z,83.14
2022-10-01T05:19:20.609Z,83.22
2022-10-01T05:23:17.387Z,82.97
2022-10-01T05:27:13.457Z,82.92
2022-10-01T05:31:10.343Z,83.07
2022-10-01T05:35:06.168Z,83.42
2022-10-01T05:39:21.356Z,83.37
2022-10-01T05:43:16.169Z,83.35
2022-10-01T05:47:24.719Z,83.36
2022-10-01T05:51:24.781Z,83.42
2022-10-01T05:55:24.472Z,83.23
2022-10-01T06:03:50.679Z,83.29
2022-10-01T06:07:47.408Z,83.67
2022-10-01T06:11:48.283Z,83.46
2022-10-01T06:15:48.116Z,83.34
2022-10-01T06:19:50.167Z,83.45
2022-10-01T06:28:07.839Z,83.80
2022-10-01T06:32:08.607Z,83.70
2022-10-01T06:36:05.631Z,83.74
2022-10-01T06:44:18.347Z,83.96
2022-10-01T06:48:20.082Z,83.86
2022-10-01T06:52:21.011Z,83.87
2022-10-01T06:56:24.819Z,83.81
2022-10-01T07:00:02.279Z,83.84
2022-10-01T07:03:35.848Z,83.87
2022-10-01T07:07:07.974Z,83.81
2022-10-01T07:10:45.829Z,83.96
2022-10-01T07:14:41.767Z,83.89
2022-10-01T07:18:37.577Z,84.00
2022-10-01T07:22:33.589Z,83.84
2022-10-01T07:26:34.279Z,83.79
2022-10-01T07:30:21.212Z,83.89
2022-10-01T07:34:21.051Z,83.78
2022-10-01T07:38:23.427Z,84.08
2022-10-01T07:42:19.225Z,83.95
2022-10-01T07:45:55.417Z,84.23
2022-10-01T07:49:42.199Z,83.85
2022-10-01T07:57:03.313Z,83.94
2022-10-01T08:00:39.225Z,83.94
2022-10-01T08:04:12.311Z,84.07
2022-10-01T08:07:56.297Z,84.16
2022-10-01T08:11:28.356Z,83.92
2022-10-01T08:15:28.034Z,84.11
2022-10-01T08:19:25.063Z,84.14
2022-10-01T08:23:20.737Z,83.86
2022-10-01T08:27:29.933Z,83.52
2022-10-01T08:31:29.131Z,83.75
2022-10-01T08:35:28.977Z,84.23
2022-10-01T08:39:26.420Z,83.83
2022-10-01T08:43:25.949Z,83.53
2022-10-01T08:47:21.793Z,83.26
2022-10-01T08:51:31.864Z,83.14
2022-10-01T08:55:32.507Z,82.61
2022-10-01T08:59:29.584Z,82.51
2022-10-01T09:03:29.262Z,82.38
2022-10-01T09:07:26.256Z,82.20
2022-10-01T09:11:25.100Z,82.47
2022-10-01T09:15:28.137Z,82.37
2022-10-01T09:19:27.853Z,82.08
2022-10-01T09:23:33.824Z,82.08
2022-10-01T09:27:37.265Z,82.10
2022-10-01T09:31:38.612Z,81.76
2022-10-01T09:35:55.413Z,81.60
2022-10-01T09:39:52.685Z,81.55
2022-10-01T09:43:49.326Z,81.92
2022-10-01T09:47:51.784Z,81.22
2022-10-01T09:51:51.745Z,81.40
2022-10-01T09:55:52.779Z,81.59
2022-10-01T09:59:29.659Z,81.47
2022-10-01T10:03:05.930Z,81.31
2022-10-01T10:06:41.706Z,80.46
2022-10-01T10:11:52.854Z,80.62
2022-10-01T10:15:52.530Z,80.84
2022-10-01T10:19:48.403Z,80.30
2022-10-01T10:23:55.261Z,79.27
2022-10-01T10:28:00.818Z,79.41
2022-10-01T10:36:21.300Z,79.17
2022-10-01T10:40:22.760Z,79.37
2022-10-01T10:44:24.075Z,79.08
2022-10-01T10:48:23.442Z,78.97
2022-10-01T10:52:55.991Z,78.98
2022-10-01T10:57:02.637Z,77.85
2022-10-01T11:01:02.531Z,76.73
2022-10-01T11:05:06.168Z,78.08
2022-10-01T11:09:03.164Z,78.29
2022-10-01T11:17:10.003Z,78.47
2022-10-01T11:21:06.704Z,78.22
2022-10-01T11:25:02.719Z,77.87
2022-10-01T11:29:02.290Z,77.91
2022-10-01T11:33:25.530Z,77.52
2022-10-01T11:37:30.576Z,77.89
2022-10-01T11:41:32.650Z,75.82
2022-10-01T11:45:33.410Z,76.37
2022-10-01T11:49:40.316Z,76.94
2022-10-01T11:53:47.141Z,75.83
2022-10-01T11:57:26.879Z,76.52
2022-10-01T12:01:06.156Z,75.93
2022-10-01T12:05:05.308Z,76.31
2022-10-01T12:08:37.156Z,76.47
2022-10-01T12:12:11.559Z,76.68
2022-10-01T12:15:50.217Z,76.73
2022-10-01T12:19:22.263Z,76.39
2022-10-01T12:22:44.251Z,76.66
2022-10-01T12:26:16.572Z,76.18
2022-10-01T12:29:54.124Z,76.29
2022-10-01T12:33:30.139Z,76.40
2022-10-01T12:37:05.180Z,75.95
2022-10-01T12:41:13.029Z,76.41
2022-10-01T12:45:18.762Z,75.80
2022-10-01T12:49:11.816Z,75.80
2022-10-01T12:52:51.763Z,75.69
2022-10-01T12:56:34.119Z,75.99
2022-10-01T13:00:10.799Z,75.88
2022-10-01T13:04:06.724Z,75.73
2022-10-01T13:07:59.663Z,75.90
2022-10-01T13:11:31.740Z,76.01
2022-10-01T13:15:09.675Z,75.51
2022-10-01T13:18:39.701Z,75.49
2022-10-01T13:22:17.657Z,75.61
2022-10-01T13:25:49.758Z,75.71
2022-10-01T13:29:21.720Z,75.52
2022-10-01T13:32:57.761Z,75.69
2022-10-01T13:36:29.643Z,75.82
2022-10-01T13:40:18.730Z,76.18
2022-10-01T13:43:50.648Z,75.92
2022-10-01T13:47:22.754Z,75.84
2022-10-01T13:50:54.655Z,75.93
2022-10-01T13:54:35.752Z,75.88
2022-10-01T13:58:07.669Z,76.09
2022-10-01T14:01:39.786Z,76.08
2022-10-01T14:05:11.637Z,75.99
2022-10-01T14:08:43.700Z,76.06
2022-10-01T14:12:16.631Z,76.46
2022-10-01T14:15:55.776Z,76.66
2022-10-01T14:19:29.659Z,76.70
2022-10-01T14:23:03.815Z,76.68
2022-10-01T14:26:39.635Z,76.71
2022-10-01T14:30:36.700Z,76.82
2022-10-01T14:34:35.431Z,76.62
2022-10-01T14:38:52.908Z,76.60
2022-10-01T14:42:53.244Z,76.85
2022-10-01T14:46:44.234Z,76.65
2022-10-01T14:50:40.362Z,76.81
2022-10-01T14:54:36.280Z,76.97
2022-10-01T14:58:37.165Z,76.72
2022-10-01T15:02:56.409Z,76.61
2022-10-01T15:06:31.318Z,76.52
2022-10-01T15:10:06.271Z,76.95
2022-10-01T15:13:43.217Z,76.67
2022-10-01T15:17:17.377Z,76.91
2022-10-01T15:20:47.223Z,76.95
2022-10-01T15:24:21.333Z,77.15
2022-10-01T15:28:00.285Z,77.04
2022-10-01T15:31:32.466Z,77.24
2022-10-01T15:35:04.290Z,77.36
2022-10-01T15:38:44.335Z,77.39
2022-10-01T15:42:17.307Z,77.65
2022-10-01T15:45:54.346Z,77.61
2022-10-01T15:49:32.212Z,77.56
2022-10-01T15:53:12.320Z,77.76
2022-10-01T15:56:36.403Z,77.71
2022-10-01T16:00:07.389Z,77.93
2022-10-01T16:03:57.216Z,77.90
2022-10-01T16:07:31.313Z,78.01
2022-10-01T16:11:11.186Z,78.36
2022-10-01T16:14:44.312Z,78.13
2022-10-01T16:18:19.219Z,78.16
2022-10-01T16:22:10.842Z,78.06
2022-10-01T16:25:52.678Z,78.28
2022-10-01T16:29:24.765Z,78.50
2022-10-01T16:33:00.678Z,78.26
2022-10-01T16:36:35.121Z,78.63
2022-10-01T16:40:19.705Z,78.58
2022-10-01T16:43:55.784Z,78.63
2022-10-01T16:47:31.640Z,78.89
2022-10-01T16:51:07.955Z,78.89
2022-10-01T16:54:35.646Z,78.95
2022-10-01T16:58:11.827Z,78.92
2022-10-01T17:01:40.654Z,78.97
2022-10-01T17:05:16.731Z,79.05
2022-10-01T17:08:48.644Z,79.19
2022-10-01T17:12:23.761Z,79.10
2022-10-01T17:15:49.666Z,79.15
2022-10-01T17:19:21.698Z,79.06
2022-10-01T17:22:53.670Z,79.31
2022-10-01T17:26:16.744Z,79.34
2022-10-01T17:29:52.690Z,79.47
2022-10-01T17:33:29.764Z,79.64
2022-10-01T17:37:02.654Z,79.71
2022-10-01T17:40:38.964Z,79.63
2022-10-01T17:44:15.731Z,79.78
2022-10-01T17:47:51.719Z,79.75
2022-10-01T17:51:31.715Z,80.09
2022-10-01T17:55:35.088Z,79.89
2022-10-01T17:59:03.994Z,80.27
2022-10-01T18:02:42.838Z,80.19
2022-10-01T18:06:15.996Z,80.39
2022-10-01T18:10:12.024Z,80.14
2022-10-01T18:14:17.800Z,80.57
2022-10-01T18:22:13.940Z,81.31
2022-10-01T18:29:48.660Z,80.46
2022-10-01T18:33:24.475Z,78.46
2022-10-01T18:37:04.626Z,78.34
2022-10-01T18:40:40.447Z,78.50
2022-10-01T18:53:28.232Z,77.95
2022-10-01T19:10:50.448Z,78.45
2022-10-01T19:19:19.607Z,78.88
2022-10-01T19:23:28.331Z,78.86
2022-10-01T19:27:33.401Z,78.88
2022-10-01T19:31:44.010Z,79.27
2022-10-01T19:35:41.162Z,79.06
2022-10-01T19:39:42.947Z,79.18
2022-10-01T19:43:44.079Z,79.27
2022-10-01T19:47:52.804Z,79.40
2022-10-01T19:51:53.315Z,79.60
2022-10-01T19:56:16.556Z,79.75
2022-10-01T20:04:41.520Z,80.08
2022-10-01T20:13:05.990Z,80.36
2022-10-01T20:21:34.988Z,80.68
2022-10-01T20:25:32.406Z,80.65
2022-10-01T20:29:28.390Z,80.74
2022-10-01T20:33:28.837Z,80.80
2022-10-01T20:37:40.934Z,81.05
2022-10-01T20:41:45.851Z,81.09
2022-10-01T20:50:14.663Z,81.27
2022-10-01T21:02:14.382Z,81.16
2022-10-01T21:07:28.252Z,81.23
2022-10-01T21:11:26.916Z,81.43
2022-10-01T21:15:31.338Z,81.41
2022-10-01T21:19:32.694Z,81.51
2022-10-01T21:23:53.045Z,81.23
2022-10-01T21:28:05.638Z,81.39
2022-10-01T21:31:56.899Z,81.47
2022-10-01T21:35:57.389Z,81.56
2022-10-01T21:39:53.811Z,81.81
2022-10-01T21:44:08.847Z,81.58
2022-10-01T21:53:19.797Z,81.79
2022-10-01T21:57:10.586Z,81.82
2022-10-01T22:05:25.561Z,81.87
2022-10-01T22:09:12.152Z,82.03
2022-10-01T22:13:18.901Z,81.92
2022-10-01T22:17:34.519Z,81.76
2022-10-01T22:26:10.093Z,82.03
2022-10-01T22:34:23.565Z,82.03
2022-10-01T22:51:35.450Z,82.38
2022-10-01T22:55:35.286Z,82.26
2022-10-01T22:59:35.119Z,82.46
2022-10-01T23:03:42.658Z,82.41
2022-10-01T23:07:46.654Z,82.37
2022-10-01T23:15:55.517Z,82.28
2022-10-01T23:19:54.334Z,82.49
2022-10-01T23:23:53.416Z,82.74
2022-10-01T23:27:26.256Z,82.67
2022-10-01T23:30:58.330Z,82.93
2022-10-01T23:34:30.267Z,83.02
2022-10-01T23:38:17.311Z,83.12
2022-10-01T23:42:14.151Z,83.39
2022-10-01T23:46:11.253Z,83.04
2022-10-01T23:50:23.988Z,83.24
2022-10-01T23:54:20.910Z,83.32
2022-10-01T23:58:20.693Z,83.36
